sensor_id;sensor_type;location;lat;lon;timestamp;pressure;altitude;pressure_sealevel;temperature;humidity
29903;BME280;30288;50.514;9.678;2023-05-23T00:00:12;98452.38;;;14.92;100.00
29903;BME280;30288;50.514;9.678;2023-05-23T00:02:17;98459.03;;;14.95;100.00
29903;BME280;30288;50.514;9.678;2023-05-23T00:04:23;98459.28;;;14.90;100.00
29903;BME280;30288;50.514;9.678;2023-05-23T00:06:29;98460.97;;;14.89;100.00
29903;BME280;30288;50.514;9.678;2023-05-23T00:08:38;98460.97;;;14.89;100.00
29903;BME280;30288;50.514;9.678;2023-05-23T00:10:44;98454.59;;;14.82;100.00
29903;BME280;30288;50.514;9.678;2023-05-23T00:12:49;98461.28;;;14.83;100.00
29903;BME280;30288;50.514;9.678;2023-05-23T00:14:55;98462.75;;;14.87;100.00
29903;BME280;30288;50.514;9.678;2023-05-23T00:17:00;98456.06;;;14.86;100.00
29903;BME280;30288;50.514;9.678;2023-05-23T00:19:06;98465.75;;;14.78;100.00
29903;BME280;30288;50.514;9.678;2023-05-23T00:21:12;98468.16;;;14.81;100.00
29903;BME280;30288;50.514;9.678;2023-05-23T00:23:18;98475.28;;;14.73;100.00
29903;BME280;30288;50.514;9.678;2023-05-23T00:25:26;98475.44;;;14.70;100.00
29903;BME280;30288;50.514;9.678;2023-05-23T00:27:35;98472.84;;;14.72;100.00
29903;BME280;30288;50.514;9.678;2023-05-23T00:29:40;98480.53;;;14.70;100.00
29903;BME280;30288;50.514;9.678;2023-05-23T00:31:46;98465.75;;;14.78;100.00
29903;BME280;30288;50.514;9.678;2023-05-23T00:33:51;98473.34;;;14.78;100.00
29903;BME280;30288;50.514;9.678;2023-05-23T00:35:56;98476.06;;;14.75;100.00
29903;BME280;30288;50.514;9.678;2023-05-23T00:38:01;98470.16;;;14.75;100.00
29903;BME280;30288;50.514;9.678;2023-05-23T00:40:10;98476.94;;;14.74;100.00
29903;BME280;30288;50.514;9.678;2023-05-23T00:42:18;98487.09;;;14.74;100.00
29903;BME280;30288;50.514;9.678;2023-05-23T00:44:23;98477.22;;;14.68;100.00
29903;BME280;30288;50.514;9.678;2023-05-23T00:46:29;98478.00;;;14.70;100.00
29903;BME280;30288;50.514;9.678;2023-05-23T00:48:34;98475.28;;;14.73;100.00
29903;BME280;30288;50.514;9.678;2023-05-23T00:50:40;98479.75;;;14.68;100.00
29903;BME280;30288;50.514;9.678;2023-05-23T00:52:47;98485.88;;;14.64;100.00
29903;BME280;30288;50.514;9.678;2023-05-23T00:54:53;98483.50;;;14.61;100.00
29903;BME280;30288;50.514;9.678;2023-05-23T00:56:59;98482.09;;;14.56;100.00
29903;BME280;30288;50.514;9.678;2023-05-23T00:59:07;98489.75;;;14.54;100.00
29903;BME280;30288;50.514;9.678;2023-05-23T01:01:14;98488.56;;;14.44;100.00
29903;BME280;30288;50.514;9.678;2023-05-23T01:03:20;98489.59;;;14.40;100.00
29903;BME280;30288;50.514;9.678;2023-05-23T01:05:30;98487.88;;;14.40;100.00
29903;BME280;30288;50.514;9.678;2023-05-23T01:07:35;98497.34;;;14.37;100.00
29903;BME280;30288;50.514;9.678;2023-05-23T01:09:42;98500.75;;;14.36;100.00
29903;BME280;30288;50.514;9.678;2023-05-23T01:11:54;98501.03;;;14.30;100.00
29903;BME280;30288;50.514;9.678;2023-05-23T01:14:10;98503.22;;;14.19;100.00
29903;BME280;30288;50.514;9.678;2023-05-23T01:16:23;98505.31;;;14.11;100.00
29903;BME280;30288;50.514;9.678;2023-05-23T01:18:37;98508.31;;;14.00;100.00
29903;BME280;30288;50.514;9.678;2023-05-23T01:20:49;98506.88;;;13.94;100.00
29903;BME280;30288;50.514;9.678;2023-05-23T01:25:48;98515.44;;;13.92;100.00
29903;BME280;30288;50.514;9.678;2023-05-23T01:28:07;98506.53;;;13.83;100.00
29903;BME280;30288;50.514;9.678;2023-05-23T01:30:17;98502.28;;;13.84;100.00
29903;BME280;30288;50.514;9.678;2023-05-23T01:32:24;98504.41;;;13.74;100.00
29903;BME280;30288;50.514;9.678;2023-05-23T01:34:34;98503.16;;;13.64;100.00
29903;BME280;30288;50.514;9.678;2023-05-23T01:36:42;98502.88;;;13.51;100.00
29903;BME280;30288;50.514;9.678;2023-05-23T01:38:48;98503.22;;;13.44;100.00
29903;BME280;30288;50.514;9.678;2023-05-23T01:40:53;98505.00;;;13.42;100.00
29903;BME280;30288;50.514;9.678;2023-05-23T01:42:59;98494.31;;;13.35;100.00
29903;BME280;30288;50.514;9.678;2023-05-23T01:45:09;98501.09;;;13.35;100.00
29903;BME280;30288;50.514;9.678;2023-05-23T01:47:15;98504.13;;;13.23;100.00
29903;BME280;30288;50.514;9.678;2023-05-23T01:49:24;98495.19;;;13.16;100.00
29903;BME280;30288;50.514;9.678;2023-05-23T01:51:31;98496.28;;;13.08;100.00
29903;BME280;30288;50.514;9.678;2023-05-23T01:53:37;98493.00;;;13.06;100.00
29903;BME280;30288;50.514;9.678;2023-05-23T01:55:43;98494.91;;;13.01;100.00
29903;BME280;30288;50.514;9.678;2023-05-23T01:57:50;98492.56;;;12.97;100.00
29903;BME280;30288;50.514;9.678;2023-05-23T01:59:56;98483.34;;;12.96;100.00
29903;BME280;30288;50.514;9.678;2023-05-23T02:02:07;98491.97;;;12.90;100.00
29903;BME280;30288;50.514;9.678;2023-05-23T02:04:13;98498.25;;;12.82;100.00
29903;BME280;30288;50.514;9.678;2023-05-23T02:06:18;98488.31;;;12.77;100.00
29903;BME280;30288;50.514;9.678;2023-05-23T02:08:24;98492.97;;;12.66;100.00
29903;BME280;30288;50.514;9.678;2023-05-23T02:10:30;98496.38;;;12.65;100.00
29903;BME280;30288;50.514;9.678;2023-05-23T02:12:35;98496.50;;;12.62;100.00
29903;BME280;30288;50.514;9.678;2023-05-23T02:14:40;98504.97;;;12.61;100.00
29903;BME280;30288;50.514;9.678;2023-05-23T02:16:46;98502.38;;;12.62;100.00
29903;BME280;30288;50.514;9.678;2023-05-23T02:18:57;98514.94;;;12.64;100.00
29903;BME280;30288;50.514;9.678;2023-05-23T02:21:03;98510.53;;;12.69;100.00
29903;BME280;30288;50.514;9.678;2023-05-23T02:23:11;98512.72;;;12.78;100.00
29903;BME280;30288;50.514;9.678;2023-05-23T02:25:17;98504.13;;;12.82;100.00
29903;BME280;30288;50.514;9.678;2023-05-23T02:27:22;98507.00;;;12.93;100.00
29903;BME280;30288;50.514;9.678;2023-05-23T02:29:27;98512.69;;;12.98;100.00
29903;BME280;30288;50.514;9.678;2023-05-23T02:31:33;98509.06;;;13.05;100.00
29903;BME280;30288;50.514;9.678;2023-05-23T02:33:39;98513.22;;;13.06;100.00
29903;BME280;30288;50.514;9.678;2023-05-23T02:35:47;98513.97;;;13.08;100.00
29903;BME280;30288;50.514;9.678;2023-05-23T02:37:53;98518.41;;;13.03;100.00
29903;BME280;30288;50.514;9.678;2023-05-23T02:39:58;98509.78;;;13.07;100.00
29903;BME280;30288;50.514;9.678;2023-05-23T02:42:04;98525.75;;;13.09;100.00
29903;BME280;30288;50.514;9.678;2023-05-23T02:44:10;98523.34;;;13.06;100.00
29903;BME280;30288;50.514;9.678;2023-05-23T02:46:16;98523.44;;;13.03;100.00
29903;BME280;30288;50.514;9.678;2023-05-23T02:48:22;98524.28;;;13.04;100.00
29903;BME280;30288;50.514;9.678;2023-05-23T02:50:28;98523.44;;;13.03;100.00
29903;BME280;30288;50.514;9.678;2023-05-23T02:52:35;98518.16;;;13.09;100.00
29903;BME280;30288;50.514;9.678;2023-05-23T02:54:41;98519.69;;;13.13;100.00
29903;BME280;30288;50.514;9.678;2023-05-23T02:56:46;98521.22;;;13.18;100.00
29903;BME280;30288;50.514;9.678;2023-05-23T02:58:53;98523.09;;;13.12;100.00
29903;BME280;30288;50.514;9.678;2023-05-23T03:00:58;98518.81;;;13.14;100.00
29903;BME280;30288;50.514;9.678;2023-05-23T03:03:04;98518.69;;;13.18;100.00
29903;BME280;30288;50.514;9.678;2023-05-23T03:05:09;98516.72;;;13.24;100.00
29903;BME280;30288;50.514;9.678;2023-05-23T03:07:15;98514.25;;;13.23;100.00
29903;BME280;30288;50.514;9.678;2023-05-23T03:09:32;98514.00;;;13.29;100.00
29903;BME280;30288;50.514;9.678;2023-05-23T03:11:37;98515.66;;;13.30;100.00
29903;BME280;30288;50.514;9.678;2023-05-23T03:13:45;98525.19;;;13.43;100.00
29903;BME280;30288;50.514;9.678;2023-05-23T03:15:51;98521.69;;;13.46;100.00
29903;BME280;30288;50.514;9.678;2023-05-23T03:17:56;98518.91;;;13.52;100.00
29903;BME280;30288;50.514;9.678;2023-05-23T03:20:03;98517.72;;;13.59;100.00
29903;BME280;30288;50.514;9.678;2023-05-23T03:22:13;98518.56;;;13.59;100.00
29903;BME280;30288;50.514;9.678;2023-05-23T03:24:18;98517.72;;;13.59;100.00
29903;BME280;30288;50.514;9.678;2023-05-23T03:26:27;98519.91;;;13.48;100.00
29903;BME280;30288;50.514;9.678;2023-05-23T03:28:32;98512.59;;;13.42;100.00
29903;BME280;30288;50.514;9.678;2023-05-23T03:30:38;98512.09;;;13.34;100.00
29903;BME280;30288;50.514;9.678;2023-05-23T03:32:43;98522.84;;;13.19;100.00
29903;BME280;30288;50.514;9.678;2023-05-23T03:34:49;98524.84;;;13.10;100.00
29903;BME280;30288;50.514;9.678;2023-05-23T03:36:54;98519.91;;;13.07;100.00
29903;BME280;30288;50.514;9.678;2023-05-23T03:39:01;98528.41;;;13.06;100.00
29903;BME280;30288;50.514;9.678;2023-05-23T03:41:07;98536.22;;;13.00;100.00
29903;BME280;30288;50.514;9.678;2023-05-23T03:43:15;98527.25;;;12.93;100.00
29903;BME280;30288;50.514;9.678;2023-05-23T03:45:20;98528.16;;;12.92;100.00
29903;BME280;30288;50.514;9.678;2023-05-23T03:47:26;98535.00;;;12.89;100.00
29903;BME280;30288;50.514;9.678;2023-05-23T03:49:33;98524.53;;;12.98;100.00
29903;BME280;30288;50.514;9.678;2023-05-23T03:51:38;98531.56;;;13.11;100.00
29903;BME280;30288;50.514;9.678;2023-05-23T03:53:44;98528.59;;;13.22;100.00
29903;BME280;30288;50.514;9.678;2023-05-23T03:55:50;98534.97;;;13.31;100.00
29903;BME280;30288;50.514;9.678;2023-05-23T03:57:55;98535.22;;;13.45;100.00
29903;BME280;30288;50.514;9.678;2023-05-23T04:00:07;98546.59;;;13.55;100.00
29903;BME280;30288;50.514;9.678;2023-05-23T04:02:17;98542.44;;;13.54;100.00
29903;BME280;30288;50.514;9.678;2023-05-23T04:04:23;98555.56;;;13.62;100.00
29903;BME280;30288;50.514;9.678;2023-05-23T04:06:29;98555.38;;;13.67;100.00
29903;BME280;30288;50.514;9.678;2023-05-23T04:08:36;98556.72;;;13.74;100.00
29903;BME280;30288;50.514;9.678;2023-05-23T04:10:43;98557.16;;;13.83;100.00
29903;BME280;30288;50.514;9.678;2023-05-23T04:12:48;98562.84;;;13.88;100.00
29903;BME280;30288;50.514;9.678;2023-05-23T04:14:54;98560.59;;;14.01;100.00
29903;BME280;30288;50.514;9.678;2023-05-23T04:17:02;98562.16;;;14.03;100.00
29903;BME280;30288;50.514;9.678;2023-05-23T04:19:11;98563.66;;;14.08;100.00
29903;BME280;30288;50.514;9.678;2023-05-23T04:21:17;98562.53;;;14.15;100.00
29903;BME280;30288;50.514;9.678;2023-05-23T04:23:39;98565.25;;;14.29;100.00
29903;BME280;30288;50.514;9.678;2023-05-23T04:25:44;98573.34;;;14.37;100.00
29903;BME280;30288;50.514;9.678;2023-05-23T04:28:00;98579.06;;;14.59;100.00
29903;BME280;30288;50.514;9.678;2023-05-23T04:30:08;98583.56;;;14.71;100.00
29903;BME280;30288;50.514;9.678;2023-05-23T04:32:20;98576.28;;;14.82;100.00
29903;BME280;30288;50.514;9.678;2023-05-23T04:34:25;98587.00;;;14.87;100.00
29903;BME280;30288;50.514;9.678;2023-05-23T04:36:32;98579.72;;;14.99;100.00
29903;BME280;30288;50.514;9.678;2023-05-23T04:38:39;98579.50;;;15.03;100.00
29903;BME280;30288;50.514;9.678;2023-05-23T04:40:45;98578.97;;;15.14;100.00
29903;BME280;30288;50.514;9.678;2023-05-23T04:43:09;98582.25;;;15.16;100.00
29903;BME280;30288;50.514;9.678;2023-05-23T04:45:22;98585.31;;;15.22;100.00
29903;BME280;30288;50.514;9.678;2023-05-23T04:47:42;98585.25;;;15.24;100.00
29903;BME280;30288;50.514;9.678;2023-05-23T04:50:03;98583.38;;;15.27;100.00
29903;BME280;30288;50.514;9.678;2023-05-23T04:52:10;98594.34;;;15.28;100.00
29903;BME280;30288;50.514;9.678;2023-05-23T04:54:16;98604.22;;;15.34;100.00
29903;BME280;30288;50.514;9.678;2023-05-23T04:56:22;98606.16;;;15.29;100.00
29903;BME280;30288;50.514;9.678;2023-05-23T04:58:28;98609.41;;;15.31;100.00
29903;BME280;30288;50.514;9.678;2023-05-23T05:00:38;98614.19;;;15.37;100.00
29903;BME280;30288;50.514;9.678;2023-05-23T05:02:47;98617.50;;;15.39;100.00
29903;BME280;30288;50.514;9.678;2023-05-23T05:04:53;98620.09;;;15.38;100.00
29903;BME280;30288;50.514;9.678;2023-05-23T05:06:59;98617.50;;;15.39;100.00
29903;BME280;30288;50.514;9.678;2023-05-23T05:09:05;98628.16;;;15.46;100.00
29903;BME280;30288;50.514;9.678;2023-05-23T05:11:10;98629.97;;;15.44;100.00
29903;BME280;30288;50.514;9.678;2023-05-23T05:13:16;98626.00;;;15.38;100.00
29903;BME280;30288;50.514;9.678;2023-05-23T05:15:27;98631.19;;;15.35;100.00
29903;BME280;30288;50.514;9.678;2023-05-23T05:17:33;98631.34;;;15.32;100.00
29903;BME280;30288;50.514;9.678;2023-05-23T05:19:45;98633.00;;;15.33;100.00
29903;BME280;30288;50.514;9.678;2023-05-23T05:21:51;98643.00;;;15.36;100.00
29903;BME280;30288;50.514;9.678;2023-05-23T05:24:00;98639.19;;;15.27;100.00
29903;BME280;30288;50.514;9.678;2023-05-23T05:26:06;98643.91;;;15.18;100.00
29903;BME280;30288;50.514;9.678;2023-05-23T05:28:12;98642.50;;;15.29;100.00
29903;BME280;30288;50.514;9.678;2023-05-23T05:30:24;98639.72;;;15.34;100.00
29903;BME280;30288;50.514;9.678;2023-05-23T05:32:33;98647.78;;;15.42;100.00
29903;BME280;30288;50.514;9.678;2023-05-23T05:34:45;98644.34;;;15.43;100.00
29903;BME280;30288;50.514;9.678;2023-05-23T05:36:54;98641.94;;;15.40;100.00
29903;BME280;30288;50.514;9.678;2023-05-23T05:39:01;98649.19;;;15.30;100.00
29903;BME280;30288;50.514;9.678;2023-05-23T05:41:09;98649.72;;;15.37;100.00
29903;BME280;30288;50.514;9.678;2023-05-23T05:43:21;98652.25;;;15.37;100.00
29903;BME280;30288;50.514;9.678;2023-05-23T05:45:27;98651.50;;;15.35;100.00
29903;BME280;30288;50.514;9.678;2023-05-23T05:47:32;98649.56;;;15.40;100.00
29903;BME280;30288;50.514;9.678;2023-05-23T05:49:39;98651.56;;;15.52;100.00
29903;BME280;30288;50.514;9.678;2023-05-23T05:51:46;98657.34;;;15.54;100.00
29903;BME280;30288;50.514;9.678;2023-05-23T05:53:52;98657.88;;;15.61;100.00
29903;BME280;30288;50.514;9.678;2023-05-23T05:55:58;98655.00;;;15.50;100.00
29903;BME280;30288;50.514;9.678;2023-05-23T05:58:06;98657.50;;;15.51;100.00
29903;BME280;30288;50.514;9.678;2023-05-23T06:00:24;98662.84;;;15.45;100.00
29903;BME280;30288;50.514;9.678;2023-05-23T06:02:31;98663.25;;;15.55;100.00
29903;BME280;30288;50.514;9.678;2023-05-23T06:04:36;98670.16;;;15.53;100.00
29903;BME280;30288;50.514;9.678;2023-05-23T06:06:41;98665.91;;;15.53;100.00
29903;BME280;30288;50.514;9.678;2023-05-23T06:08:49;98672.88;;;15.48;100.00
29903;BME280;30288;50.514;9.678;2023-05-23T06:10:55;98674.13;;;15.40;100.00
29903;BME280;30288;50.514;9.678;2023-05-23T06:13:01;98676.75;;;15.38;100.00
29903;BME280;30288;50.514;9.678;2023-05-23T06:15:10;98674.72;;;15.27;100.00
29903;BME280;30288;50.514;9.678;2023-05-23T06:17:17;98674.88;;;15.24;100.00
29903;BME280;30288;50.514;9.678;2023-05-23T06:19:22;98673.13;;;15.08;100.00
29903;BME280;30288;50.514;9.678;2023-05-23T06:21:28;98671.47;;;15.07;100.00
29903;BME280;30288;50.514;9.678;2023-05-23T06:23:35;98671.47;;;15.07;100.00
29903;BME280;30288;50.514;9.678;2023-05-23T06:25:42;98679.84;;;15.09;100.00
29903;BME280;30288;50.514;9.678;2023-05-23T06:27:48;98681.94;;;15.01;100.00
29903;BME280;30288;50.514;9.678;2023-05-23T06:29:53;98674.50;;;15.15;100.00
29903;BME280;30288;50.514;9.678;2023-05-23T06:31:58;98677.47;;;15.23;100.00
29903;BME280;30288;50.514;9.678;2023-05-23T06:34:03;98670.47;;;15.28;100.00
29903;BME280;30288;50.514;9.678;2023-05-23T06:36:08;98677.41;;;15.42;100.00
29903;BME280;30288;50.514;9.678;2023-05-23T06:38:13;98669.56;;;15.46;100.00
29903;BME280;30288;50.514;9.678;2023-05-23T06:40:19;98671.69;;;15.55;100.00
29903;BME280;30288;50.514;9.678;2023-05-23T06:42:29;98672.00;;;15.66;100.00
29903;BME280;30288;50.514;9.678;2023-05-23T06:44:43;98674.97;;;15.74;100.00
29903;BME280;30288;50.514;9.678;2023-05-23T06:46:48;98687.50;;;15.95;100.00
29903;BME280;30288;50.514;9.678;2023-05-23T06:48:58;98683.00;;;16.00;100.00
29903;BME280;30288;50.514;9.678;2023-05-23T06:51:17;98677.41;;;16.10;100.00
29903;BME280;30288;50.514;9.678;2023-05-23T06:53:23;98674.63;;;16.15;100.00
29903;BME280;30288;50.514;9.678;2023-05-23T06:55:28;98670.53;;;16.28;100.00
29903;BME280;30288;50.514;9.678;2023-05-23T06:57:38;98665.16;;;16.34;100.00
29903;BME280;30288;50.514;9.678;2023-05-23T06:59:43;98668.44;;;16.52;100.00
29903;BME280;30288;50.514;9.678;2023-05-23T07:01:50;98658.44;;;16.80;100.00
29903;BME280;30288;50.514;9.678;2023-05-23T07:03:57;98662.59;;;16.97;100.00
29903;BME280;30288;50.514;9.678;2023-05-23T07:06:02;98664.81;;;17.03;100.00
29903;BME280;30288;50.514;9.678;2023-05-23T07:08:09;98668.56;;;17.27;100.00
29903;BME280;30288;50.514;9.678;2023-05-23T07:10:23;98665.19;;;17.57;100.00
29903;BME280;30288;50.514;9.678;2023-05-23T07:12:38;98676.53;;;17.81;100.00
29903;BME280;30288;50.514;9.678;2023-05-23T07:14:44;98666.63;;;18.05;100.00
29903;BME280;30288;50.514;9.678;2023-05-23T07:16:52;98673.09;;;18.24;100.00
29903;BME280;30288;50.514;9.678;2023-05-23T07:18:59;98676.56;;;18.23;100.00
29903;BME280;30288;50.514;9.678;2023-05-23T07:21:11;98679.25;;;18.34;100.00
29903;BME280;30288;50.514;9.678;2023-05-23T07:23:17;98679.28;;;18.20;100.00
29903;BME280;30288;50.514;9.678;2023-05-23T07:25:22;98676.44;;;17.82;100.00
29903;BME280;30288;50.514;9.678;2023-05-23T07:27:30;98678.34;;;17.79;100.00
29903;BME280;30288;50.514;9.678;2023-05-23T07:29:38;98679.25;;;17.78;100.00
29903;BME280;30288;50.514;9.678;2023-05-23T07:31:44;98681.38;;;17.56;100.00
29903;BME280;30288;50.514;9.678;2023-05-23T07:33:51;98683.13;;;17.39;100.00
29903;BME280;30288;50.514;9.678;2023-05-23T07:36:07;98687.84;;;17.31;100.00
29903;BME280;30288;50.514;9.678;2023-05-23T07:38:13;98694.53;;;17.18;100.00
29903;BME280;30288;50.514;9.678;2023-05-23T07:40:19;98679.44;;;17.15;100.00
29903;BME280;30288;50.514;9.678;2023-05-23T07:42:24;98689.78;;;16.96;100.00
29903;BME280;30288;50.514;9.678;2023-05-23T07:44:30;98689.13;;;17.09;100.00
29903;BME280;30288;50.514;9.678;2023-05-23T07:46:40;98687.97;;;17.14;100.00
29903;BME280;30288;50.514;9.678;2023-05-23T07:48:45;98682.19;;;17.26;100.00
29903;BME280;30288;50.514;9.678;2023-05-23T07:50:50;98686.59;;;17.38;100.00
29903;BME280;30288;50.514;9.678;2023-05-23T07:52:57;98691.34;;;17.44;100.00
29903;BME280;30288;50.514;9.678;2023-05-23T07:55:06;98693.09;;;17.58;100.00
29903;BME280;30288;50.514;9.678;2023-05-23T07:57:12;98688.19;;;17.55;100.00
29903;BME280;30288;50.514;9.678;2023-05-23T07:59:18;98687.00;;;17.76;100.00
29903;BME280;30288;50.514;9.678;2023-05-23T08:01:26;98684.34;;;17.78;100.00
29903;BME280;30288;50.514;9.678;2023-05-23T08:03:41;98683.06;;;17.71;100.00
29903;BME280;30288;50.514;9.678;2023-05-23T08:05:53;98687.06;;;17.61;100.00
29903;BME280;30288;50.514;9.678;2023-05-23T08:07:59;98689.34;;;17.49;100.00
29903;BME280;30288;50.514;9.678;2023-05-23T08:10:07;98702.53;;;17.26;100.00
29903;BME280;30288;50.514;9.678;2023-05-23T08:12:13;98701.91;;;17.07;100.00
29903;BME280;30288;50.514;9.678;2023-05-23T08:14:20;98714.41;;;16.96;100.00
29903;BME280;30288;50.514;9.678;2023-05-23T08:16:56;98714.56;;;16.93;100.00
29903;BME280;30288;50.514;9.678;2023-05-23T08:19:04;98715.22;;;17.12;100.00
29903;BME280;30288;50.514;9.678;2023-05-23T08:21:09;98710.50;;;17.20;100.00
29903;BME280;30288;50.514;9.678;2023-05-23T08:23:15;98711.84;;;17.57;100.00
29903;BME280;30288;50.514;9.678;2023-05-23T08:25:20;98708.00;;;17.66;100.00
29903;BME280;30288;50.514;9.678;2023-05-23T08:27:26;98706.75;;;17.87;100.00
29903;BME280;30288;50.514;9.678;2023-05-23T08:29:37;98710.66;;;17.92;100.00
29903;BME280;30288;50.514;9.678;2023-05-23T08:31:44;98711.22;;;17.98;100.00
29903;BME280;30288;50.514;9.678;2023-05-23T08:33:50;98712.03;;;17.84;100.00
29903;BME280;30288;50.514;9.678;2023-05-23T08:35:57;98709.28;;;17.87;100.00
29903;BME280;30288;50.514;9.678;2023-05-23T08:38:06;98713.34;;;17.61;100.00
29903;BME280;30288;50.514;9.678;2023-05-23T08:40:19;98724.09;;;17.50;100.00
29903;BME280;30288;50.514;9.678;2023-05-23T08:42:42;98725.00;;;17.49;100.00
29903;BME280;30288;50.514;9.678;2023-05-23T08:44:48;98730.94;;;17.34;100.00
29903;BME280;30288;50.514;9.678;2023-05-23T08:46:57;98731.81;;;17.19;100.00
29903;BME280;30288;50.514;9.678;2023-05-23T08:49:17;98727.19;;;17.26;100.00
29903;BME280;30288;50.514;9.678;2023-05-23T08:51:27;98730.53;;;17.26;100.00
29903;BME280;30288;50.514;9.678;2023-05-23T08:53:37;98737.53;;;17.38;100.00
29903;BME280;30288;50.514;9.678;2023-05-23T08:55:46;98734.22;;;17.36;100.00
29903;BME280;30288;50.514;9.678;2023-05-23T08:57:55;98739.66;;;17.30;100.00
29903;BME280;30288;50.514;9.678;2023-05-23T09:00:12;98738.19;;;17.26;100.00
29903;BME280;30288;50.514;9.678;2023-05-23T09:02:19;98738.03;;;17.29;100.00
29903;BME280;30288;50.514;9.678;2023-05-23T09:04:28;98744.41;;;17.36;100.00
29903;BME280;30288;50.514;9.678;2023-05-23T09:06:42;98747.84;;;17.35;100.00
29903;BME280;30288;50.514;9.678;2023-05-23T09:08:48;98740.34;;;17.18;100.00
29903;BME280;30288;50.514;9.678;2023-05-23T09:10:55;98745.94;;;17.25;100.00
29903;BME280;30288;50.514;9.678;2023-05-23T09:13:00;98749.13;;;17.28;100.00
29903;BME280;30288;50.514;9.678;2023-05-23T09:15:08;98747.72;;;17.38;100.00
29903;BME280;30288;50.514;9.678;2023-05-23T09:17:17;98754.09;;;17.45;100.00
29903;BME280;30288;50.514;9.678;2023-05-23T09:19:24;98751.94;;;17.54;100.00
29903;BME280;30288;50.514;9.678;2023-05-23T09:21:36;98757.72;;;17.41;100.00
29903;BME280;30288;50.514;9.678;2023-05-23T09:23:51;98762.28;;;17.50;100.00
29903;BME280;30288;50.514;9.678;2023-05-23T09:25:59;98754.72;;;17.49;100.00
29903;BME280;30288;50.514;9.678;2023-05-23T09:28:05;98749.84;;;17.30;100.00
29903;BME280;30288;50.514;9.678;2023-05-23T09:30:13;98757.25;;;17.19;100.00
29903;BME280;30288;50.514;9.678;2023-05-23T09:32:20;98753.56;;;17.25;100.00
29903;BME280;30288;50.514;9.678;2023-05-23T09:34:26;98755.44;;;17.21;100.00
29903;BME280;30288;50.514;9.678;2023-05-23T09:36:32;98745.75;;;17.12;100.00
29903;BME280;30288;50.514;9.678;2023-05-23T09:38:39;98756.19;;;17.23;100.00
29903;BME280;30288;50.514;9.678;2023-05-23T09:40:47;98750.53;;;17.18;100.00
29903;BME280;30288;50.514;9.678;2023-05-23T09:42:52;98766.44;;;17.06;100.00
29903;BME280;30288;50.514;9.678;2023-05-23T09:44:58;98757.91;;;17.07;100.00
29903;BME280;30288;50.514;9.678;2023-05-23T09:47:06;98758.22;;;17.17;100.00
29903;BME280;30288;50.514;9.678;2023-05-23T09:49:15;98761.13;;;16.95;100.00
29903;BME280;30288;50.514;9.678;2023-05-23T09:51:24;98768.88;;;16.60;100.00
29903;BME280;30288;50.514;9.678;2023-05-23T09:53:30;98759.13;;;16.51;100.00
29903;BME280;30288;50.514;9.678;2023-05-23T09:55:36;98768.59;;;16.32;100.00
29903;BME280;30288;50.514;9.678;2023-05-23T09:57:44;98768.00;;;16.27;100.00
29903;BME280;30288;50.514;9.678;2023-05-23T09:59:53;98767.47;;;16.38;100.00
29903;BME280;30288;50.514;9.678;2023-05-23T10:02:01;98771.91;;;16.34;100.00
29903;BME280;30288;50.514;9.678;2023-05-23T10:04:08;98766.94;;;16.31;100.00
29903;BME280;30288;50.514;9.678;2023-05-23T10:06:20;98765.00;;;16.36;100.00
29903;BME280;30288;50.514;9.678;2023-05-23T10:08:35;98768.75;;;16.29;100.00
29903;BME280;30288;50.514;9.678;2023-05-23T10:14:00;98770.84;;;16.21;100.00
29903;BME280;30288;50.514;9.678;2023-05-23T10:16:11;98769.72;;;16.27;100.00
29903;BME280;30288;50.514;9.678;2023-05-23T10:18:20;98768.44;;;16.35;100.00
29903;BME280;30288;50.514;9.678;2023-05-23T10:20:30;98770.66;;;16.41;100.00
29903;BME280;30288;50.514;9.678;2023-05-23T10:22:36;98774.22;;;16.54;100.00
29903;BME280;30288;50.514;9.678;2023-05-23T10:24:43;98764.38;;;16.66;100.00
29903;BME280;30288;50.514;9.678;2023-05-23T10:26:49;98769.38;;;16.83;100.00
29903;BME280;30288;50.514;9.678;2023-05-23T10:28:57;98775.97;;;17.18;100.00
29903;BME280;30288;50.514;9.678;2023-05-23T10:31:04;98776.41;;;17.56;100.00
29903;BME280;30288;50.514;9.678;2023-05-23T10:33:10;98772.63;;;17.63;100.00
29903;BME280;30288;50.514;9.678;2023-05-23T10:35:35;98777.56;;;17.50;100.00
29903;BME280;30288;50.514;9.678;2023-05-23T10:37:50;98782.03;;;17.31;100.00
29903;BME280;30288;50.514;9.678;2023-05-23T10:40:01;98779.84;;;17.10;100.00
29903;BME280;30288;50.514;9.678;2023-05-23T10:42:14;98780.22;;;17.02;100.00
29903;BME280;30288;50.514;9.678;2023-05-23T10:44:28;98782.38;;;16.94;100.00
29903;BME280;30288;50.514;9.678;2023-05-23T10:46:50;98778.41;;;16.88;100.00
29903;BME280;30288;50.514;9.678;2023-05-23T10:48:58;98784.31;;;16.89;100.00
29903;BME280;30288;50.514;9.678;2023-05-23T10:51:06;98778.38;;;16.73;100.00
29903;BME280;30288;50.514;9.678;2023-05-23T10:53:15;98780.88;;;16.90;100.00
29903;BME280;30288;50.514;9.678;2023-05-23T10:55:20;98792.06;;;17.03;100.00
29903;BME280;30288;50.514;9.678;2023-05-23T10:57:26;98789.59;;;17.01;100.00
29903;BME280;30288;50.514;9.678;2023-05-23T10:59:36;98791.22;;;17.02;100.00
29903;BME280;30288;50.514;9.678;2023-05-23T11:01:42;98795.66;;;16.99;100.00
29903;BME280;30288;50.514;9.678;2023-05-23T11:03:52;98792.16;;;16.69;100.00
29903;BME280;30288;50.514;9.678;2023-05-23T11:06:01;98796.84;;;16.60;100.00
29903;BME280;30288;50.514;9.678;2023-05-23T11:08:08;98806.25;;;16.58;100.00
29903;BME280;30288;50.514;9.678;2023-05-23T11:10:14;98806.25;;;16.58;100.00
29903;BME280;30288;50.514;9.678;2023-05-23T11:12:39;98808.34;;;16.50;100.00
29903;BME280;30288;50.514;9.678;2023-05-23T11:14:56;98799.66;;;16.54;100.00